createdAt,value
2023-03-17T00:01:14.194Z,-3.07
2023-03-17T00:03:43.201Z,-3.10
2023-03-17T00:06:16.953Z,-3.17
2023-03-17T00:08:45.976Z,-3.18
2023-03-17T00:11:14.966Z,-3.20
2023-03-17T00:13:42.814Z,-3.26
2023-03-17T00:16:22.410Z,-3.44
2023-03-17T00:18:50.760Z,-3.47
2023-03-17T00:21:27.272Z,-3.52
2023-03-17T00:23:55.603Z,-3.60
2023-03-17T00:26:22.689Z,-3.60
2023-03-17T00:28:51.205Z,-3.70
2023-03-17T00:31:24.582Z,-3.64
2023-03-17T00:33:54.205Z,-3.63
2023-03-17T00:36:32.687Z,-3.75
2023-03-17T00:39:00.045Z,-3.81
2023-03-17T00:41:27.441Z,-3.85
2023-03-17T00:43:54.383Z,-3.93
2023-03-17T00:46:27.769Z,-3.81
2023-03-17T00:48:55.356Z,-3.74
2023-03-17T00:51:23.555Z,-3.93
2023-03-17T00:53:50.686Z,-3.97
2023-03-17T00:56:19.996Z,-3.93
2023-03-17T00:58:47.941Z,-3.89
2023-03-17T01:01:15.114Z,-3.91
2023-03-17T01:03:41.976Z,-3.83
2023-03-17T01:06:12.337Z,-3.89
2023-03-17T01:09:09.635Z,-4.00
2023-03-17T01:11:52.325Z,-3.99
2023-03-17T01:14:50.839Z,-4.20
2023-03-17T01:17:32.361Z,-4.14
2023-03-17T01:20:30.733Z,-4.22
2023-03-17T01:23:16.832Z,-4.40
2023-03-17T01:25:45.059Z,-4.41
2023-03-17T01:28:17.021Z,-4.31
2023-03-17T01:30:43.914Z,-4.22
2023-03-17T01:33:13.216Z,-4.23
2023-03-17T01:35:41.597Z,-4.13
2023-03-17T01:38:08.818Z,-4.12
2023-03-17T01:40:39.322Z,-4.14
2023-03-17T01:43:09.079Z,-4.20
2023-03-17T01:46:13.413Z,-4.19
2023-03-17T01:48:47.290Z,-4.22
2023-03-17T01:51:19.348Z,-4.24
2023-03-17T01:53:50.062Z,-4.24
2023-03-17T01:56:18.276Z,-4.19
2023-03-17T01:58:49.592Z,-4.13
2023-03-17T02:01:16.710Z,-4.12
2023-03-17T02:03:45.767Z,-4.10
2023-03-17T02:06:13.249Z,-4.11
2023-03-17T02:08:40.436Z,-4.11
2023-03-17T02:11:14.320Z,-4.11
2023-03-17T02:16:54.406Z,-4.12
2023-03-17T02:19:38.577Z,-4.23
2023-03-17T02:22:25.958Z,-4.22
2023-03-17T02:25:14.014Z,-4.22
2023-03-17T02:28:08.723Z,-4.23
2023-03-17T02:30:36.640Z,-4.37
2023-03-17T02:33:03.766Z,-4.28
2023-03-17T02:35:31.653Z,-4.25
2023-03-17T02:37:58.631Z,-4.27
2023-03-17T02:40:25.455Z,-4.55
2023-03-17T02:42:52.317Z,-4.52
2023-03-17T02:45:19.153Z,-4.53
2023-03-17T02:47:47.271Z,-4.45
2023-03-17T02:50:23.754Z,-4.39
2023-03-17T02:52:51.496Z,-4.30
2023-03-17T02:55:18.427Z,-4.27
2023-03-17T02:57:45.212Z,-4.28
2023-03-17T03:00:13.599Z,-4.27
2023-03-17T03:02:41.651Z,-4.39
2023-03-17T03:05:09.795Z,-4.42
2023-03-17T03:07:36.819Z,-4.50
2023-03-17T03:10:04.340Z,-4.36
2023-03-17T03:12:31.223Z,-4.26
2023-03-17T03:14:58.999Z,-4.24
2023-03-17T03:17:25.789Z,-4.24
2023-03-17T03:19:52.737Z,-4.27
2023-03-17T03:22:19.565Z,-4.40
2023-03-17T03:24:46.413Z,-4.57
2023-03-17T03:27:13.196Z,-4.62
2023-03-17T03:29:40.037Z,-4.56
2023-03-17T03:32:07.513Z,-4.54
2023-03-17T03:34:34.397Z,-4.61
2023-03-17T03:37:01.350Z,-4.51
2023-03-17T03:39:28.201Z,-4.42
2023-03-17T03:41:58.615Z,-4.41
2023-03-17T03:44:25.897Z,-4.40
2023-03-17T03:46:53.056Z,-4.31
2023-03-17T03:49:19.989Z,-4.27
2023-03-17T03:51:46.858Z,-4.60
2023-03-17T03:54:13.992Z,-4.35
2023-03-17T03:56:40.806Z,-4.45
2023-03-17T03:59:07.792Z,-4.45
2023-03-17T04:01:34.566Z,-4.41
2023-03-17T04:04:02.007Z,-4.38
2023-03-17T04:06:28.891Z,-4.26
2023-03-17T04:08:57.866Z,-4.16
2023-03-17T04:11:25.237Z,-4.13
2023-03-17T04:13:52.220Z,-4.13
2023-03-17T04:16:19.124Z,-4.16
2023-03-17T04:18:46.178Z,-4.16
2023-03-17T04:21:13.919Z,-4.17
2023-03-17T04:23:40.857Z,-4.24
2023-03-17T04:26:07.802Z,-4.52
2023-03-17T04:28:34.921Z,-4.54
2023-03-17T04:31:02.091Z,-4.59
2023-03-17T04:33:29.285Z,-4.52
2023-03-17T04:35:56.994Z,-4.45
2023-03-17T04:38:23.949Z,-4.46
2023-03-17T04:40:52.051Z,-4.45
2023-03-17T04:43:19.035Z,-4.40
2023-03-17T04:45:46.031Z,-4.45
2023-03-17T04:48:13.058Z,-4.41
2023-03-17T04:50:40.033Z,-4.51
2023-03-17T04:53:07.131Z,-4.50
2023-03-17T04:55:34.024Z,-4.59
2023-03-17T04:58:01.344Z,-4.51
2023-03-17T05:00:28.449Z,-4.45
2023-03-17T05:02:55.763Z,-4.34
2023-03-17T05:05:22.958Z,-4.30
2023-03-17T05:07:49.915Z,-4.25
2023-03-17T05:10:17.039Z,-4.18
2023-03-17T05:12:45.489Z,-4.13
2023-03-17T05:15:12.431Z,-4.08
2023-03-17T05:17:39.320Z,-4.08
2023-03-17T05:20:06.911Z,-4.14
2023-03-17T05:22:33.858Z,-4.18
2023-03-17T05:25:00.914Z,-4.07
2023-03-17T05:27:27.899Z,-4.00
2023-03-17T05:29:54.816Z,-3.93
2023-03-17T05:32:21.774Z,-3.87
2023-03-17T05:34:49.092Z,-3.84
2023-03-17T05:37:16.911Z,-3.78
2023-03-17T05:39:44.138Z,-3.70
2023-03-17T05:42:11.635Z,-3.80
2023-03-17T05:44:38.700Z,-3.72
2023-03-17T05:47:06.083Z,-3.70
2023-03-17T05:49:32.971Z,-3.64
2023-03-17T05:51:59.858Z,-3.48
2023-03-17T05:54:26.818Z,-3.33
2023-03-17T05:56:55.373Z,-3.19
2023-03-17T05:59:22.790Z,-3.05
2023-03-17T06:01:49.780Z,-2.91
2023-03-17T06:04:16.843Z,-2.81
2023-03-17T06:06:43.941Z,-2.65
2023-03-17T06:09:11.040Z,-2.51
2023-03-17T06:11:38.477Z,-2.34
2023-03-17T06:14:05.404Z,-2.22
2023-03-17T06:16:33.499Z,-2.08
2023-03-17T06:19:00.578Z,-1.98
2023-03-17T06:21:27.689Z,-1.82
2023-03-17T06:23:54.757Z,-1.61
2023-03-17T06:26:22.174Z,-1.39
2023-03-17T06:28:49.057Z,-1.20
2023-03-17T06:31:16.238Z,-1.01
2023-03-17T06:33:44.012Z,-0.83
2023-03-17T06:37:03.856Z,-0.58
2023-03-17T06:39:31.321Z,-0.38
2023-03-17T06:41:58.309Z,-0.11
2023-03-17T06:44:25.307Z,0.26
2023-03-17T06:46:52.999Z,0.97
2023-03-17T06:49:19.970Z,1.43
2023-03-17T06:51:47.182Z,1.59
2023-03-17T06:54:14.368Z,1.69
2023-03-17T06:56:42.062Z,1.87
2023-03-17T06:59:09.102Z,2.10
2023-03-17T07:01:36.016Z,2.37
2023-03-17T07:04:02.994Z,2.49
2023-03-17T07:06:30.133Z,2.63
2023-03-17T07:08:58.252Z,2.75
2023-03-17T07:11:37.667Z,2.87
2023-03-17T07:14:07.285Z,2.89
2023-03-17T07:16:34.373Z,2.99
2023-03-17T07:19:15.159Z,3.13
2023-03-17T07:21:42.298Z,3.32
2023-03-17T07:24:10.228Z,3.45
2023-03-17T07:26:37.478Z,3.60
2023-03-17T07:29:05.953Z,3.80
2023-03-17T07:31:33.310Z,3.98
2023-03-17T07:34:00.267Z,4.15
2023-03-17T07:36:27.677Z,4.15
2023-03-17T07:38:55.708Z,4.16
2023-03-17T07:41:22.902Z,4.37
2023-03-17T07:43:49.821Z,4.55
2023-03-17T07:46:16.924Z,4.59
2023-03-17T07:48:44.287Z,4.61
2023-03-17T07:51:17.107Z,4.77
2023-03-17T07:53:45.374Z,4.93
2023-03-17T07:56:13.403Z,5.20
2023-03-17T07:58:40.611Z,5.24
2023-03-17T08:01:08.802Z,5.43
2023-03-17T08:03:38.691Z,5.65
2023-03-17T08:06:08.849Z,5.74
2023-03-17T08:08:36.244Z,5.88
2023-03-17T08:11:05.364Z,5.87
2023-03-17T08:13:32.993Z,5.93
2023-03-17T08:16:00.876Z,6.06
2023-03-17T08:18:27.899Z,6.24
2023-03-17T08:20:55.013Z,6.31
2023-03-17T08:23:22.729Z,6.41
2023-03-17T08:25:49.746Z,6.42
2023-03-17T08:28:16.742Z,6.58
2023-03-17T08:30:45.036Z,6.67
2023-03-17T08:33:12.319Z,6.76
2023-03-17T08:35:42.049Z,6.86
2023-03-17T08:38:09.910Z,6.83
2023-03-17T08:40:38.604Z,6.94
2023-03-17T08:43:05.696Z,6.99
2023-03-17T08:45:32.832Z,7.10
2023-03-17T08:48:00.348Z,7.16
2023-03-17T08:50:27.698Z,7.26
2023-03-17T08:52:55.319Z,7.36
2023-03-17T08:55:22.271Z,7.41
2023-03-17T08:57:49.786Z,7.45
2023-03-17T09:00:20.625Z,7.33
2023-03-17T09:02:49.099Z,7.44
2023-03-17T09:05:17.547Z,7.46
2023-03-17T09:07:45.026Z,7.59
2023-03-17T09:10:13.921Z,7.82
2023-03-17T09:12:40.850Z,7.88
2023-03-17T09:15:08.313Z,7.88
2023-03-17T09:17:35.250Z,7.95
2023-03-17T09:20:02.217Z,7.88
2023-03-17T09:22:29.085Z,8.02
2023-03-17T09:24:56.226Z,8.27
2023-03-17T09:27:23.215Z,8.28
2023-03-17T09:29:50.115Z,8.20
2023-03-17T09:32:17.123Z,8.34
2023-03-17T09:34:44.082Z,8.51
2023-03-17T09:37:11.101Z,8.57
2023-03-17T09:39:38.093Z,8.63
2023-03-17T09:42:20.387Z,8.72
2023-03-17T09:44:47.928Z,8.86
2023-03-17T09:47:42.289Z,8.89
2023-03-17T09:50:19.294Z,9.03
2023-03-17T09:52:51.092Z,9.16
2023-03-17T09:55:31.783Z,9.31
2023-03-17T09:58:01.106Z,9.42
2023-03-17T10:00:31.402Z,9.56
2023-03-17T10:02:59.208Z,9.72
2023-03-17T10:05:37.220Z,9.71
2023-03-17T10:08:30.736Z,9.65
2023-03-17T10:11:15.052Z,9.63
2023-03-17T10:14:02.383Z,9.70
2023-03-17T10:16:47.087Z,9.98
2023-03-17T10:19:31.807Z,9.94
2023-03-17T10:22:05.675Z,9.91
2023-03-17T10:24:34.380Z,10.05
2023-03-17T10:27:06.632Z,9.99
2023-03-17T10:29:33.688Z,10.01
2023-03-17T10:32:01.167Z,9.96
2023-03-17T10:34:31.267Z,9.96
2023-03-17T10:37:09.653Z,10.03
2023-03-17T10:39:52.623Z,10.17
2023-03-17T10:42:26.456Z,10.30
2023-03-17T10:45:02.188Z,10.42
2023-03-17T10:47:38.628Z,10.53
2023-03-17T10:50:25.164Z,10.64
2023-03-17T10:53:00.881Z,10.46
2023-03-17T10:55:44.961Z,10.55
2023-03-17T10:58:18.958Z,10.55
2023-03-17T11:01:03.819Z,10.61
2023-03-17T11:03:39.917Z,10.40
2023-03-17T11:06:19.356Z,10.61
2023-03-17T11:08:55.452Z,10.70
2023-03-17T11:11:34.960Z,10.93
2023-03-17T11:14:10.807Z,11.02
2023-03-17T11:16:40.983Z,10.80
2023-03-17T11:19:15.950Z,10.89
2023-03-17T11:22:05.278Z,10.94
2023-03-17T11:24:36.596Z,10.61
2023-03-17T11:27:19.498Z,10.76
2023-03-17T11:30:11.565Z,10.64
2023-03-17T11:32:44.130Z,10.67
2023-03-17T11:35:24.242Z,10.74
2023-03-17T11:38:09.919Z,10.86
2023-03-17T11:40:55.743Z,11.07
2023-03-17T11:43:51.477Z,11.07
2023-03-17T11:46:30.426Z,11.20
2023-03-17T11:49:10.189Z,11.09
2023-03-17T11:51:50.923Z,11.08
2023-03-17T11:54:46.053Z,11.05
2023-03-17T11:57:27.393Z,11.26
2023-03-17T12:00:01.189Z,11.35
2023-03-17T12:02:50.245Z,11.43
2023-03-17T12:05:23.329Z,11.55
2023-03-17T12:08:01.137Z,11.71
2023-03-17T12:10:36.595Z,11.62
2023-03-17T12:13:15.209Z,11.45
2023-03-17T12:16:01.298Z,11.44
2023-03-17T12:18:32.972Z,11.42
2023-03-17T12:21:12.187Z,11.29
2023-03-17T12:23:48.646Z,11.65
2023-03-17T12:26:21.885Z,11.39
2023-03-17T12:28:58.388Z,11.76
2023-03-17T12:31:44.725Z,11.96
2023-03-17T12:34:24.386Z,11.96
2023-03-17T12:36:52.493Z,12.05
2023-03-17T12:39:27.505Z,12.13
2023-03-17T12:42:11.878Z,12.03
2023-03-17T12:45:00.107Z,12.10
2023-03-17T12:47:45.603Z,11.97
2023-03-17T12:50:46.765Z,11.85
2023-03-17T12:53:16.487Z,11.69
2023-03-17T12:55:47.572Z,11.78
2023-03-17T12:58:39.837Z,11.31
2023-03-17T13:01:23.359Z,11.61
2023-03-17T13:04:05.309Z,11.81
2023-03-17T13:06:41.234Z,11.95
2023-03-17T13:09:50.963Z,11.94
2023-03-17T13:12:42.920Z,11.99
2023-03-17T13:15:33.642Z,12.02
2023-03-17T13:18:12.685Z,11.71
2023-03-17T13:21:00.633Z,11.74
2023-03-17T13:23:41.981Z,11.93
2023-03-17T13:26:12.678Z,12.13
2023-03-17T13:28:40.966Z,12.21
2023-03-17T13:31:31.979Z,12.14
2023-03-17T13:34:19.926Z,12.25
2023-03-17T13:36:56.266Z,12.34
2023-03-17T13:39:50.689Z,12.20
2023-03-17T13:42:50.938Z,12.26
2023-03-17T13:45:34.193Z,12.44
2023-03-17T13:48:35.155Z,12.40
2023-03-17T13:51:33.991Z,12.56
2023-03-17T13:54:20.193Z,12.72
2023-03-17T13:56:49.792Z,12.70
2023-03-17T13:59:41.179Z,12.62
2023-03-17T14:02:24.100Z,12.51
2023-03-17T14:04:53.738Z,12.13
2023-03-17T14:07:24.874Z,11.99
2023-03-17T14:09:57.668Z,11.99
2023-03-17T14:12:42.880Z,12.19
2023-03-17T14:15:35.306Z,12.28
2023-03-17T14:18:15.650Z,12.25
2023-03-17T14:20:57.122Z,12.36
2023-03-17T14:23:25.274Z,12.24
2023-03-17T14:25:55.034Z,12.21
2023-03-17T14:28:27.319Z,12.09
2023-03-17T14:31:02.399Z,11.89
2023-03-17T14:33:32.684Z,11.88
2023-03-17T14:36:02.384Z,11.95
2023-03-17T14:38:32.903Z,12.01
2023-03-17T14:41:21.401Z,12.03
2023-03-17T14:43:50.223Z,11.77
2023-03-17T14:46:23.219Z,11.83
2023-03-17T14:48:57.747Z,11.92
2023-03-17T14:51:27.502Z,11.81
2023-03-17T14:54:01.378Z,11.80
2023-03-17T14:56:41.734Z,11.85
2023-03-17T14:59:20.704Z,11.83
2023-03-17T15:01:48.866Z,11.89
2023-03-17T15:04:23.936Z,11.90
2023-03-17T15:06:54.096Z,11.89
2023-03-17T15:09:36.762Z,11.86
2023-03-17T15:12:12.801Z,11.81
2023-03-17T15:14:41.306Z,11.64
2023-03-17T15:17:32.633Z,11.44
2023-03-17T15:20:06.645Z,11.41
2023-03-17T15:22:36.366Z,11.37
2023-03-17T15:25:28.943Z,11.43
2023-03-17T15:27:56.343Z,11.28
2023-03-17T15:30:23.745Z,11.20
2023-03-17T15:33:01.575Z,10.73
2023-03-17T15:35:29.292Z,10.77
2023-03-17T15:37:56.745Z,10.70
2023-03-17T15:40:24.468Z,10.78
2023-03-17T15:42:51.394Z,10.67
2023-03-17T15:45:18.566Z,10.57
2023-03-17T15:47:47.580Z,10.76
2023-03-17T15:50:30.318Z,10.70
2023-03-17T15:53:00.944Z,10.44
2023-03-17T15:55:30.443Z,10.45
2023-03-17T15:57:58.672Z,10.47
2023-03-17T16:00:30.098Z,10.44
2023-03-17T16:03:02.875Z,10.46
2023-03-17T16:05:33.152Z,10.22
2023-03-17T16:08:00.162Z,10.03
2023-03-17T16:10:32.241Z,9.80
2023-03-17T16:12:59.645Z,9.73
2023-03-17T16:15:31.497Z,9.65
2023-03-17T16:18:01.515Z,9.53
2023-03-17T16:20:34.453Z,9.37
2023-03-17T16:23:08.054Z,9.18
2023-03-17T16:25:35.367Z,9.05
2023-03-17T16:28:12.505Z,9.02
2023-03-17T16:30:40.509Z,8.86
2023-03-17T16:33:22.677Z,8.75
2023-03-17T16:35:52.661Z,8.72
2023-03-17T16:38:24.918Z,8.61
2023-03-17T16:40:54.919Z,8.48
2023-03-17T16:43:28.586Z,8.37
2023-03-17T16:45:58.724Z,8.22
2023-03-17T16:48:26.300Z,8.14
2023-03-17T16:50:53.306Z,8.00
2023-03-17T16:53:20.659Z,7.93
2023-03-17T16:55:48.012Z,7.80
2023-03-17T16:58:37.132Z,7.67
2023-03-17T17:01:12.860Z,7.56
2023-03-17T17:03:41.019Z,7.51
2023-03-17T17:06:08.978Z,7.44
2023-03-17T17:08:36.051Z,7.37
2023-03-17T17:11:03.453Z,7.26
2023-03-17T17:13:30.629Z,7.24
2023-03-17T17:15:57.706Z,7.18
2023-03-17T17:18:27.451Z,7.10
2023-03-17T17:20:55.208Z,6.90
2023-03-17T17:23:26.944Z,6.89
2023-03-17T17:25:55.232Z,6.84
2023-03-17T17:28:24.146Z,6.71
2023-03-17T17:30:52.434Z,6.61
2023-03-17T17:33:21.478Z,6.62
2023-03-17T17:35:49.681Z,6.53
2023-03-17T17:38:28.719Z,6.41
2023-03-17T17:40:57.641Z,6.33
2023-03-17T17:43:25.379Z,6.20
2023-03-17T17:45:53.349Z,6.10
2023-03-17T17:48:23.706Z,5.97
2023-03-17T17:50:52.332Z,5.91
2023-03-17T17:53:19.847Z,5.79
2023-03-17T17:55:48.440Z,5.70
2023-03-17T17:58:18.302Z,5.61
2023-03-17T18:00:45.646Z,5.53
2023-03-17T18:03:12.806Z,5.49
2023-03-17T18:05:40.328Z,5.35
2023-03-17T18:08:10.426Z,5.29
2023-03-17T18:10:37.637Z,5.22
2023-03-17T18:13:05.444Z,5.20
2023-03-17T18:15:32.689Z,5.13
2023-03-17T18:17:59.752Z,5.02
2023-03-17T18:20:27.230Z,4.96
2023-03-17T18:22:54.527Z,4.91
2023-03-17T18:25:21.559Z,4.88
2023-03-17T18:27:48.767Z,4.83
2023-03-17T18:30:28.095Z,4.65
2023-03-17T18:33:01.511Z,4.60
2023-03-17T18:35:29.946Z,4.41
2023-03-17T18:37:59.226Z,4.47
2023-03-17T18:40:27.731Z,4.39
2023-03-17T18:42:55.537Z,4.33
2023-03-17T18:45:22.816Z,4.45
2023-03-17T18:47:50.778Z,4.45
2023-03-17T18:50:20.252Z,4.44
2023-03-17T18:52:48.037Z,4.47
2023-03-17T18:55:16.039Z,4.53
2023-03-17T18:57:44.729Z,4.73
2023-03-17T19:00:17.132Z,4.77
2023-03-17T19:02:45.898Z,4.81
2023-03-17T19:05:15.000Z,4.88
2023-03-17T19:07:42.492Z,4.92
2023-03-17T19:10:11.474Z,5.03
2023-03-17T19:12:38.907Z,5.09
2023-03-17T19:15:08.451Z,5.12
2023-03-17T19:17:36.562Z,5.12
2023-03-17T19:20:06.678Z,5.06
2023-03-17T19:22:35.256Z,5.22
2023-03-17T19:25:05.107Z,5.30
2023-03-17T19:27:32.537Z,5.31
2023-03-17T19:29:59.509Z,5.30
2023-03-17T19:32:27.092Z,5.28
2023-03-17T19:34:54.722Z,5.26
2023-03-17T19:37:21.910Z,5.28
2023-03-17T19:39:49.140Z,5.23
2023-03-17T19:42:16.467Z,5.22
2023-03-17T19:44:43.754Z,5.16
2023-03-17T19:47:10.717Z,5.12
2023-03-17T19:49:38.998Z,5.04
2023-03-17T19:52:06.751Z,5.02
2023-03-17T19:54:34.458Z,5.03
2023-03-17T19:57:01.403Z,4.96
2023-03-17T19:59:29.028Z,4.93
2023-03-17T20:01:56.798Z,4.88
2023-03-17T20:04:24.039Z,4.77
2023-03-17T20:06:55.688Z,4.71
2023-03-17T20:09:25.002Z,4.63
2023-03-17T20:11:54.059Z,4.57
2023-03-17T20:14:21.339Z,4.45
2023-03-17T20:16:49.176Z,4.38
2023-03-17T20:19:16.757Z,4.35
2023-03-17T20:21:44.069Z,4.26
2023-03-17T20:24:13.107Z,4.23
2023-03-17T20:26:41.193Z,4.18
2023-03-17T20:29:08.854Z,4.20
2023-03-17T20:31:37.415Z,4.22
2023-03-17T20:34:35.621Z,4.19
2023-03-17T20:37:03.065Z,4.14
2023-03-17T20:39:31.120Z,4.08
2023-03-17T20:41:58.117Z,4.06
2023-03-17T20:44:25.546Z,3.99
2023-03-17T20:46:55.386Z,3.93
2023-03-17T20:49:23.756Z,3.74
2023-03-17T20:51:52.859Z,3.87
2023-03-17T20:54:20.422Z,3.75
2023-03-17T20:56:49.171Z,3.81
2023-03-17T20:59:16.563Z,3.80
2023-03-17T21:01:43.727Z,3.80
2023-03-17T21:04:12.566Z,3.76
2023-03-17T21:06:39.911Z,3.74
2023-03-17T21:09:06.849Z,3.73
2023-03-17T21:11:34.408Z,3.73
2023-03-17T21:14:03.621Z,3.66
2023-03-17T21:16:30.958Z,3.60
2023-03-17T21:18:57.960Z,3.60
2023-03-17T21:21:25.617Z,3.58
2023-03-17T21:23:52.892Z,3.57
2023-03-17T21:26:20.197Z,3.49
2023-03-17T21:28:49.147Z,3.43
2023-03-17T21:31:17.471Z,3.39
2023-03-17T21:33:45.102Z,3.33
2023-03-17T21:36:12.122Z,3.27
2023-03-17T21:38:39.308Z,3.18
2023-03-17T21:41:21.544Z,3.10
2023-03-17T21:43:48.665Z,2.98
2023-03-17T21:46:16.753Z,2.95
2023-03-17T21:48:44.302Z,2.95
2023-03-17T21:51:11.678Z,2.96
2023-03-17T21:53:38.811Z,2.88
2023-03-17T21:56:06.565Z,2.73
2023-03-17T21:58:33.577Z,2.76
2023-03-17T22:01:01.674Z,2.73
2023-03-17T22:03:30.219Z,2.72
2023-03-17T22:05:57.170Z,2.72
2023-03-17T22:08:24.483Z,2.70
2023-03-17T22:10:51.873Z,2.66
2023-03-17T22:13:18.903Z,2.65
2023-03-17T22:15:45.844Z,2.56
2023-03-17T22:18:12.812Z,2.48
2023-03-17T22:20:39.918Z,2.39
2023-03-17T22:23:07.128Z,2.26
2023-03-17T22:25:34.118Z,2.04
2023-03-17T22:28:01.055Z,1.79
2023-03-17T22:30:28.439Z,1.66
2023-03-17T22:32:55.987Z,1.54
2023-03-17T22:35:25.195Z,1.45
2023-03-17T22:37:52.203Z,1.34
2023-03-17T22:40:19.401Z,1.21
2023-03-17T22:42:47.059Z,1.11
2023-03-17T22:45:14.056Z,1.06
2023-03-17T22:47:41.267Z,0.99
2023-03-17T22:50:09.020Z,0.93
2023-03-17T22:52:35.967Z,0.85
2023-03-17T22:55:02.946Z,0.70
2023-03-17T22:57:30.017Z,0.66
2023-03-17T22:59:58.542Z,0.66
2023-03-17T23:02:26.474Z,0.58
2023-03-17T23:04:53.740Z,0.67
2023-03-17T23:07:21.186Z,0.67
2023-03-17T23:09:48.337Z,0.68
2023-03-17T23:12:15.355Z,0.63
2023-03-17T23:14:42.561Z,0.57
2023-03-17T23:17:09.746Z,0.45
2023-03-17T23:19:36.758Z,0.54
2023-03-17T23:22:03.746Z,0.53
2023-03-17T23:24:30.719Z,0.51
2023-03-17T23:26:57.713Z,0.55
2023-03-17T23:29:24.688Z,0.51
2023-03-17T23:31:51.601Z,0.42
2023-03-17T23:34:18.916Z,0.37
2023-03-17T23:36:46.368Z,0.37
2023-03-17T23:39:13.447Z,0.41
2023-03-17T23:41:40.474Z,0.45
2023-03-17T23:44:07.751Z,0.45
2023-03-17T23:46:34.874Z,0.37
2023-03-17T23:49:01.874Z,0.30
2023-03-17T23:51:29.398Z,0.34
2023-03-17T23:53:56.381Z,0.36
2023-03-17T23:56:23.474Z,0.36
2023-03-17T23:58:50.544Z,0.30
